sensor_id;sensor_type;location;lat;lon;timestamp;P1;durP1;ratioP1;P2;durP2;ratioP2
76379;SDS011;65201;21.060;105.826;2023-01-23T04:42:06;29.88;;;17.48;;
76379;SDS011;65201;21.060;105.826;2023-01-23T04:44:33;32.10;;;17.45;;
76379;SDS011;65201;21.060;105.826;2023-01-23T04:46:59;30.23;;;17.25;;
76379;SDS011;65201;21.060;105.826;2023-01-23T04:49:26;31.02;;;17.23;;
76379;SDS011;65201;21.060;105.826;2023-01-23T04:51:52;29.67;;;17.63;;
76379;SDS011;65201;21.060;105.826;2023-01-23T04:54:19;25.92;;;16.33;;
76379;SDS011;65201;21.060;105.826;2023-01-23T04:56:46;30.98;;;16.85;;
76379;SDS011;65201;21.060;105.826;2023-01-23T04:59:13;29.95;;;17.35;;
76379;SDS011;65201;21.060;105.826;2023-01-23T05:01:40;27.40;;;16.30;;
76379;SDS011;65201;21.060;105.826;2023-01-23T05:04:07;30.83;;;16.20;;
76379;SDS011;65201;21.060;105.826;2023-01-23T05:06:33;26.25;;;16.58;;
76379;SDS011;65201;21.060;105.826;2023-01-23T05:08:59;30.20;;;16.60;;
76379;SDS011;65201;21.060;105.826;2023-01-23T05:11:26;29.77;;;16.80;;
76379;SDS011;65201;21.060;105.826;2023-01-23T05:13:55;26.92;;;16.20;;
76379;SDS011;65201;21.060;105.826;2023-01-23T06:24:53;22.30;;;13.30;;
76379;SDS011;65201;21.060;105.826;2023-01-23T06:27:19;23.20;;;13.57;;
76379;SDS011;65201;21.060;105.826;2023-01-23T06:29:46;24.95;;;14.00;;
76379;SDS011;65201;21.060;105.826;2023-01-23T06:32:12;23.27;;;14.02;;
76379;SDS011;65201;21.060;105.826;2023-01-23T06:34:38;24.03;;;14.23;;
76379;SDS011;65201;21.060;105.826;2023-01-23T06:37:04;19.15;;;13.10;;
76379;SDS011;65201;21.060;105.826;2023-01-23T06:39:30;22.63;;;13.77;;
76379;SDS011;65201;21.060;105.826;2023-01-23T06:41:58;22.27;;;13.02;;
76379;SDS011;65201;21.060;105.826;2023-01-23T06:44:24;21.10;;;13.05;;
76379;SDS011;65201;21.060;105.826;2023-01-23T06:46:53;21.63;;;13.43;;
76379;SDS011;65201;21.060;105.826;2023-01-23T06:49:19;22.17;;;13.43;;
76379;SDS011;65201;21.060;105.826;2023-01-23T06:51:45;22.33;;;13.02;;
76379;SDS011;65201;21.060;105.826;2023-01-23T06:54:12;18.67;;;12.80;;
76379;SDS011;65201;21.060;105.826;2023-01-23T06:56:38;21.95;;;13.27;;
76379;SDS011;65201;21.060;105.826;2023-01-23T06:59:04;19.53;;;13.00;;
76379;SDS011;65201;21.060;105.826;2023-01-23T07:01:30;19.75;;;12.95;;
76379;SDS011;65201;21.060;105.826;2023-01-23T07:03:57;24.15;;;13.38;;
76379;SDS011;65201;21.060;105.826;2023-01-23T07:06:23;21.80;;;13.50;;
76379;SDS011;65201;21.060;105.826;2023-01-23T07:08:49;20.95;;;13.15;;
76379;SDS011;65201;21.060;105.826;2023-01-23T07:11:15;23.27;;;12.67;;
76379;SDS011;65201;21.060;105.826;2023-01-23T07:13:41;20.33;;;12.57;;
76379;SDS011;65201;21.060;105.826;2023-01-23T07:16:07;21.13;;;12.85;;
76379;SDS011;65201;21.060;105.826;2023-01-23T07:18:33;21.63;;;12.20;;
76379;SDS011;65201;21.060;105.826;2023-01-23T07:21:02;18.48;;;12.25;;
76379;SDS011;65201;21.060;105.826;2023-01-23T07:23:28;27.63;;;12.70;;
76379;SDS011;65201;21.060;105.826;2023-01-23T07:25:58;24.35;;;12.88;;
76379;SDS011;65201;21.060;105.826;2023-01-23T07:28:24;21.52;;;12.80;;
76379;SDS011;65201;21.060;105.826;2023-01-23T07:30:50;25.05;;;12.40;;
76379;SDS011;65201;21.060;105.826;2023-01-23T07:33:17;20.88;;;12.55;;
76379;SDS011;65201;21.060;105.826;2023-01-23T07:35:43;23.00;;;12.90;;
76379;SDS011;65201;21.060;105.826;2023-01-23T07:38:09;23.95;;;13.57;;
76379;SDS011;65201;21.060;105.826;2023-01-23T07:40:35;22.50;;;12.77;;
76379;SDS011;65201;21.060;105.826;2023-01-23T07:43:03;17.30;;;12.18;;
76379;SDS011;65201;21.060;105.826;2023-01-23T07:45:30;23.65;;;13.15;;
76379;SDS011;65201;21.060;105.826;2023-01-23T07:47:56;19.33;;;12.97;;
76379;SDS011;65201;21.060;105.826;2023-01-23T07:50:22;22.67;;;13.52;;
76379;SDS011;65201;21.060;105.826;2023-01-23T07:52:48;22.13;;;13.45;;
76379;SDS011;65201;21.060;105.826;2023-01-23T07:55:14;21.98;;;13.75;;
76379;SDS011;65201;21.060;105.826;2023-01-23T07:57:40;22.63;;;13.98;;
76379;SDS011;65201;21.060;105.826;2023-01-23T08:00:07;24.90;;;12.97;;
76379;SDS011;65201;21.060;105.826;2023-01-23T08:02:35;23.30;;;13.75;;
76379;SDS011;65201;21.060;105.826;2023-01-23T08:05:02;20.70;;;13.27;;
76379;SDS011;65201;21.060;105.826;2023-01-23T08:07:28;23.92;;;13.55;;
76379;SDS011;65201;21.060;105.826;2023-01-23T08:09:54;24.50;;;13.93;;
76379;SDS011;65201;21.060;105.826;2023-01-23T08:12:20;23.77;;;13.87;;
76379;SDS011;65201;21.060;105.826;2023-01-23T08:14:46;21.73;;;13.52;;
76379;SDS011;65201;21.060;105.826;2023-01-23T08:17:13;21.73;;;13.73;;
76379;SDS011;65201;21.060;105.826;2023-01-23T08:19:39;24.88;;;13.38;;
76379;SDS011;65201;21.060;105.826;2023-01-23T08:22:05;22.08;;;13.60;;
76379;SDS011;65201;21.060;105.826;2023-01-23T08:24:31;21.20;;;13.93;;
76379;SDS011;65201;21.060;105.826;2023-01-23T08:26:57;21.60;;;13.15;;
76379;SDS011;65201;21.060;105.826;2023-01-23T08:29:23;26.33;;;14.00;;
76379;SDS011;65201;21.060;105.826;2023-01-23T08:31:49;23.98;;;14.20;;
76379;SDS011;65201;21.060;105.826;2023-01-23T08:34:19;23.15;;;13.82;;
76379;SDS011;65201;21.060;105.826;2023-01-23T08:36:45;21.20;;;13.13;;
76379;SDS011;65201;21.060;105.826;2023-01-23T08:39:11;23.20;;;13.63;;
76379;SDS011;65201;21.060;105.826;2023-01-23T08:41:37;24.67;;;13.13;;
76379;SDS011;65201;21.060;105.826;2023-01-23T08:44:03;22.67;;;13.98;;
76379;SDS011;65201;21.060;105.826;2023-01-23T08:46:30;23.77;;;14.05;;
76379;SDS011;65201;21.060;105.826;2023-01-23T08:48:56;20.37;;;14.03;;
76379;SDS011;65201;21.060;105.826;2023-01-23T08:51:22;23.42;;;13.98;;
76379;SDS011;65201;21.060;105.826;2023-01-23T08:53:50;24.95;;;13.40;;
76379;SDS011;65201;21.060;105.826;2023-01-23T08:56:17;19.38;;;13.18;;
76379;SDS011;65201;21.060;105.826;2023-01-23T08:58:44;21.55;;;13.93;;
76379;SDS011;65201;21.060;105.826;2023-01-23T09:01:11;21.10;;;12.73;;
76379;SDS011;65201;21.060;105.826;2023-01-23T09:03:40;19.92;;;13.43;;
76379;SDS011;65201;21.060;105.826;2023-01-23T09:06:06;23.23;;;13.38;;
76379;SDS011;65201;21.060;105.826;2023-01-23T09:08:32;20.90;;;13.73;;
76379;SDS011;65201;21.060;105.826;2023-01-23T09:10:59;19.85;;;13.10;;
76379;SDS011;65201;21.060;105.826;2023-01-23T09:13:25;21.93;;;13.87;;
76379;SDS011;65201;21.060;105.826;2023-01-23T09:15:52;24.80;;;13.70;;
76379;SDS011;65201;21.060;105.826;2023-01-23T09:18:18;19.90;;;13.15;;
76379;SDS011;65201;21.060;105.826;2023-01-23T09:20:47;21.20;;;13.30;;
76379;SDS011;65201;21.060;105.826;2023-01-23T09:23:13;20.13;;;13.57;;
76379;SDS011;65201;21.060;105.826;2023-01-23T09:25:40;20.70;;;13.20;;
76379;SDS011;65201;21.060;105.826;2023-01-23T09:28:06;20.20;;;13.55;;
76379;SDS011;65201;21.060;105.826;2023-01-23T09:30:32;21.98;;;13.65;;
76379;SDS011;65201;21.060;105.826;2023-01-23T09:32:58;23.85;;;14.07;;
76379;SDS011;65201;21.060;105.826;2023-01-23T09:35:24;19.50;;;13.10;;
76379;SDS011;65201;21.060;105.826;2023-01-23T09:37:50;19.17;;;13.00;;
76379;SDS011;65201;21.060;105.826;2023-01-23T09:40:34;18.83;;;13.43;;
76379;SDS011;65201;21.060;105.826;2023-01-23T09:43:02;21.27;;;12.77;;
76379;SDS011;65201;21.060;105.826;2023-01-23T09:45:30;20.90;;;13.48;;
76379;SDS011;65201;21.060;105.826;2023-01-23T09:50:30;19.67;;;12.63;;
76379;SDS011;65201;21.060;105.826;2023-01-23T09:52:58;22.90;;;12.07;;
76379;SDS011;65201;21.060;105.826;2023-01-23T09:55:41;18.90;;;12.77;;
76379;SDS011;65201;21.060;105.826;2023-01-23T09:58:29;19.40;;;12.50;;
76379;SDS011;65201;21.060;105.826;2023-01-23T10:00:56;19.23;;;12.90;;
76379;SDS011;65201;21.060;105.826;2023-01-23T10:03:24;17.53;;;12.67;;
76379;SDS011;65201;21.060;105.826;2023-01-23T10:11:20;20.48;;;13.05;;
76379;SDS011;65201;21.060;105.826;2023-01-23T10:16:22;20.27;;;12.93;;
76379;SDS011;65201;21.060;105.826;2023-01-23T10:26:44;21.02;;;13.30;;
76379;SDS011;65201;21.060;105.826;2023-01-23T10:29:13;19.20;;;12.93;;
76379;SDS011;65201;21.060;105.826;2023-01-23T10:31:48;21.15;;;12.95;;
76379;SDS011;65201;21.060;105.826;2023-01-23T10:34:24;22.45;;;13.25;;
76379;SDS011;65201;21.060;105.826;2023-01-23T10:39:28;21.25;;;12.18;;
76379;SDS011;65201;21.060;105.826;2023-01-23T10:41:55;19.50;;;12.67;;
76379;SDS011;65201;21.060;105.826;2023-01-23T10:44:21;21.85;;;12.82;;
76379;SDS011;65201;21.060;105.826;2023-01-23T10:46:48;18.45;;;13.25;;
76379;SDS011;65201;21.060;105.826;2023-01-23T10:49:47;20.83;;;11.88;;
76379;SDS011;65201;21.060;105.826;2023-01-23T10:52:23;19.95;;;12.75;;
76379;SDS011;65201;21.060;105.826;2023-01-23T10:54:52;21.43;;;12.57;;
76379;SDS011;65201;21.060;105.826;2023-01-23T10:57:20;21.98;;;12.85;;
76379;SDS011;65201;21.060;105.826;2023-01-23T10:59:55;18.58;;;12.32;;
76379;SDS011;65201;21.060;105.826;2023-01-23T11:02:26;20.55;;;12.60;;
76379;SDS011;65201;21.060;105.826;2023-01-23T11:04:52;18.00;;;12.10;;
76379;SDS011;65201;21.060;105.826;2023-01-23T11:07:20;19.93;;;12.57;;
76379;SDS011;65201;21.060;105.826;2023-01-23T11:12:26;22.95;;;13.10;;
76379;SDS011;65201;21.060;105.826;2023-01-23T11:15:09;19.15;;;12.68;;
76379;SDS011;65201;21.060;105.826;2023-01-23T11:17:39;21.13;;;12.30;;
76379;SDS011;65201;21.060;105.826;2023-01-23T11:20:11;17.77;;;11.90;;
76379;SDS011;65201;21.060;105.826;2023-01-23T11:22:46;19.70;;;12.35;;
76379;SDS011;65201;21.060;105.826;2023-01-23T11:27:56;19.00;;;12.70;;
76379;SDS011;65201;21.060;105.826;2023-01-23T11:30:31;18.67;;;12.50;;
76379;SDS011;65201;21.060;105.826;2023-01-23T11:35:40;21.35;;;13.43;;
76379;SDS011;65201;21.060;105.826;2023-01-23T11:38:09;20.25;;;13.07;;
76379;SDS011;65201;21.060;105.826;2023-01-23T11:40:37;24.67;;;15.60;;
76379;SDS011;65201;21.060;105.826;2023-01-23T11:43:08;24.58;;;16.27;;
76379;SDS011;65201;21.060;105.826;2023-01-23T11:48:13;23.33;;;14.65;;
76379;SDS011;65201;21.060;105.826;2023-01-23T11:53:46;27.98;;;16.10;;
76379;SDS011;65201;21.060;105.826;2023-01-23T12:04:25;28.05;;;16.33;;
76379;SDS011;65201;21.060;105.826;2023-01-23T12:09:29;25.05;;;13.40;;
76379;SDS011;65201;21.060;105.826;2023-01-23T12:14:29;19.92;;;12.73;;
76379;SDS011;65201;21.060;105.826;2023-01-23T12:17:05;25.67;;;14.18;;
76379;SDS011;65201;21.060;105.826;2023-01-23T12:19:42;25.52;;;13.98;;
76379;SDS011;65201;21.060;105.826;2023-01-23T12:32:38;25.55;;;12.45;;
76379;SDS011;65201;21.060;105.826;2023-01-23T12:40:12;23.15;;;13.35;;
76379;SDS011;65201;21.060;105.826;2023-01-23T12:42:59;19.10;;;12.82;;
76379;SDS011;65201;21.060;105.826;2023-01-23T12:45:27;20.83;;;12.73;;
76379;SDS011;65201;21.060;105.826;2023-01-23T12:53:06;21.73;;;13.55;;
76379;SDS011;65201;21.060;105.826;2023-01-23T12:55:38;22.17;;;12.70;;
76379;SDS011;65201;21.060;105.826;2023-01-23T12:58:05;22.40;;;12.73;;
76379;SDS011;65201;21.060;105.826;2023-01-23T13:08:27;22.02;;;13.00;;
76379;SDS011;65201;21.060;105.826;2023-01-23T13:11:13;24.15;;;13.90;;
76379;SDS011;65201;21.060;105.826;2023-01-23T13:14:00;26.02;;;13.32;;
76379;SDS011;65201;21.060;105.826;2023-01-23T13:16:29;23.80;;;13.73;;
76379;SDS011;65201;21.060;105.826;2023-01-23T13:18:56;26.83;;;14.32;;
76379;SDS011;65201;21.060;105.826;2023-01-23T13:24:27;25.33;;;14.70;;
76379;SDS011;65201;21.060;105.826;2023-01-23T13:27:55;26.17;;;14.40;;
76379;SDS011;65201;21.060;105.826;2023-01-23T13:30:03;22.23;;;14.27;;
76379;SDS011;65201;21.060;105.826;2023-01-23T13:32:30;25.55;;;14.60;;
76379;SDS011;65201;21.060;105.826;2023-01-23T13:34:56;24.60;;;14.88;;
76379;SDS011;65201;21.060;105.826;2023-01-23T13:40:08;24.30;;;14.63;;
76379;SDS011;65201;21.060;105.826;2023-01-23T13:42:38;24.17;;;14.73;;
76379;SDS011;65201;21.060;105.826;2023-01-23T13:50:41;21.95;;;14.63;;
76379;SDS011;65201;21.060;105.826;2023-01-23T13:53:16;25.40;;;15.73;;
76379;SDS011;65201;21.060;105.826;2023-01-23T13:56:01;23.83;;;15.10;;
76379;SDS011;65201;21.060;105.826;2023-01-23T13:59:19;25.25;;;14.85;;
76379;SDS011;65201;21.060;105.826;2023-01-23T14:02:03;24.55;;;14.35;;
76379;SDS011;65201;21.060;105.826;2023-01-23T14:04:58;22.90;;;14.55;;
76379;SDS011;65201;21.060;105.826;2023-01-23T14:07:37;21.70;;;13.63;;
76379;SDS011;65201;21.060;105.826;2023-01-23T14:10:24;24.67;;;15.17;;
76379;SDS011;65201;21.060;105.826;2023-01-23T14:13:00;22.98;;;14.13;;
76379;SDS011;65201;21.060;105.826;2023-01-23T14:15:27;30.77;;;14.63;;
76379;SDS011;65201;21.060;105.826;2023-01-23T14:18:15;23.38;;;14.05;;
76379;SDS011;65201;21.060;105.826;2023-01-23T14:20:42;23.48;;;14.27;;
76379;SDS011;65201;21.060;105.826;2023-01-23T14:23:19;23.40;;;14.57;;
76379;SDS011;65201;21.060;105.826;2023-01-23T14:25:47;24.10;;;15.00;;
76379;SDS011;65201;21.060;105.826;2023-01-23T14:28:15;20.48;;;14.18;;
76379;SDS011;65201;21.060;105.826;2023-01-23T14:30:51;24.55;;;15.40;;
76379;SDS011;65201;21.060;105.826;2023-01-23T14:33:17;23.85;;;15.32;;
76379;SDS011;65201;21.060;105.826;2023-01-23T14:35:43;23.33;;;14.43;;
76379;SDS011;65201;21.060;105.826;2023-01-23T14:38:10;22.30;;;14.07;;
76379;SDS011;65201;21.060;105.826;2023-01-23T14:40:41;23.50;;;15.60;;
76379;SDS011;65201;21.060;105.826;2023-01-23T14:43:16;24.45;;;14.98;;
76379;SDS011;65201;21.060;105.826;2023-01-23T14:45:45;22.42;;;15.10;;
76379;SDS011;65201;21.060;105.826;2023-01-23T14:48:13;24.60;;;13.83;;
76379;SDS011;65201;21.060;105.826;2023-01-23T14:50:40;27.25;;;15.00;;
76379;SDS011;65201;21.060;105.826;2023-01-23T14:53:11;22.60;;;14.80;;
76379;SDS011;65201;21.060;105.826;2023-01-23T14:55:39;24.75;;;14.43;;
76379;SDS011;65201;21.060;105.826;2023-01-23T14:58:05;25.33;;;14.63;;
76379;SDS011;65201;21.060;105.826;2023-01-23T15:00:33;23.37;;;14.53;;
76379;SDS011;65201;21.060;105.826;2023-01-23T15:03:00;20.63;;;14.20;;
76379;SDS011;65201;21.060;105.826;2023-01-23T15:05:28;20.75;;;14.25;;
76379;SDS011;65201;21.060;105.826;2023-01-23T15:13:06;22.23;;;14.87;;
76379;SDS011;65201;21.060;105.826;2023-01-23T15:15:36;23.88;;;14.85;;
76379;SDS011;65201;21.060;105.826;2023-01-23T15:18:04;23.08;;;14.50;;
76379;SDS011;65201;21.060;105.826;2023-01-23T15:23:23;23.35;;;14.98;;
76379;SDS011;65201;21.060;105.826;2023-01-23T15:25:43;23.63;;;14.47;;
76379;SDS011;65201;21.060;105.826;2023-01-23T15:28:31;24.33;;;14.98;;
76379;SDS011;65201;21.060;105.826;2023-01-23T15:31:02;27.40;;;14.73;;
76379;SDS011;65201;21.060;105.826;2023-01-23T15:33:29;23.40;;;14.98;;
76379;SDS011;65201;21.060;105.826;2023-01-23T15:36:10;25.83;;;14.80;;
76379;SDS011;65201;21.060;105.826;2023-01-23T15:38:45;22.77;;;14.67;;
76379;SDS011;65201;21.060;105.826;2023-01-23T15:41:11;25.48;;;14.75;;
76379;SDS011;65201;21.060;105.826;2023-01-23T15:43:37;22.85;;;14.43;;
76379;SDS011;65201;21.060;105.826;2023-01-23T15:46:03;27.73;;;14.93;;
76379;SDS011;65201;21.060;105.826;2023-01-23T15:48:29;22.05;;;14.43;;
76379;SDS011;65201;21.060;105.826;2023-01-23T15:50:55;23.87;;;15.27;;
76379;SDS011;65201;21.060;105.826;2023-01-23T15:53:23;22.20;;;14.95;;
76379;SDS011;65201;21.060;105.826;2023-01-23T15:55:49;22.33;;;14.85;;
76379;SDS011;65201;21.060;105.826;2023-01-23T15:58:15;25.27;;;16.05;;
76379;SDS011;65201;21.060;105.826;2023-01-23T16:00:41;24.60;;;15.75;;
76379;SDS011;65201;21.060;105.826;2023-01-23T16:03:07;25.40;;;14.70;;
76379;SDS011;65201;21.060;105.826;2023-01-23T16:05:34;24.90;;;15.00;;
76379;SDS011;65201;21.060;105.826;2023-01-23T16:08:01;20.30;;;14.38;;
76379;SDS011;65201;21.060;105.826;2023-01-23T16:10:29;24.13;;;15.23;;
76379;SDS011;65201;21.060;105.826;2023-01-23T16:12:56;27.33;;;15.73;;
76379;SDS011;65201;21.060;105.826;2023-01-23T16:15:26;21.73;;;14.60;;
76379;SDS011;65201;21.060;105.826;2023-01-23T16:17:53;20.05;;;14.73;;
76379;SDS011;65201;21.060;105.826;2023-01-23T16:20:21;23.90;;;14.25;;
76379;SDS011;65201;21.060;105.826;2023-01-23T16:22:49;21.67;;;13.97;;
76379;SDS011;65201;21.060;105.826;2023-01-23T16:25:24;22.77;;;14.35;;
76379;SDS011;65201;21.060;105.826;2023-01-23T16:27:52;25.03;;;14.83;;
76379;SDS011;65201;21.060;105.826;2023-01-23T16:30:18;21.88;;;14.15;;
76379;SDS011;65201;21.060;105.826;2023-01-23T16:32:44;21.92;;;14.63;;
76379;SDS011;65201;21.060;105.826;2023-01-23T16:35:11;21.30;;;14.25;;
76379;SDS011;65201;21.060;105.826;2023-01-23T16:37:41;21.40;;;14.02;;
76379;SDS011;65201;21.060;105.826;2023-01-23T16:40:21;23.57;;;14.90;;
76379;SDS011;65201;21.060;105.826;2023-01-23T16:42:48;27.80;;;15.15;;
76379;SDS011;65201;21.060;105.826;2023-01-23T16:47:40;21.92;;;14.27;;
76379;SDS011;65201;21.060;105.826;2023-01-23T16:50:08;24.35;;;14.38;;
76379;SDS011;65201;21.060;105.826;2023-01-23T16:52:35;21.17;;;14.07;;
76379;SDS011;65201;21.060;105.826;2023-01-23T16:55:03;21.77;;;14.45;;
76379;SDS011;65201;21.060;105.826;2023-01-23T16:57:30;22.15;;;14.70;;
76379;SDS011;65201;21.060;105.826;2023-01-23T16:59:56;21.33;;;14.43;;
76379;SDS011;65201;21.060;105.826;2023-01-23T17:02:26;19.38;;;13.90;;
76379;SDS011;65201;21.060;105.826;2023-01-23T17:04:53;22.10;;;15.03;;
76379;SDS011;65201;21.060;105.826;2023-01-23T17:07:19;20.33;;;13.82;;
76379;SDS011;65201;21.060;105.826;2023-01-23T17:09:45;21.98;;;13.48;;
76379;SDS011;65201;21.060;105.826;2023-01-23T17:12:15;23.42;;;14.15;;
76379;SDS011;65201;21.060;105.826;2023-01-23T17:14:43;22.45;;;14.35;;
76379;SDS011;65201;21.060;105.826;2023-01-23T17:17:12;19.13;;;13.40;;
76379;SDS011;65201;21.060;105.826;2023-01-23T17:19:39;18.98;;;13.13;;
76379;SDS011;65201;21.060;105.826;2023-01-23T17:22:07;20.23;;;13.55;;
76379;SDS011;65201;21.060;105.826;2023-01-23T17:24:38;21.25;;;13.77;;
76379;SDS011;65201;21.060;105.826;2023-01-23T17:27:04;21.67;;;13.52;;
76379;SDS011;65201;21.060;105.826;2023-01-23T17:29:30;22.77;;;13.90;;
76379;SDS011;65201;21.060;105.826;2023-01-23T17:31:56;19.88;;;13.07;;
76379;SDS011;65201;21.060;105.826;2023-01-23T17:34:23;20.58;;;13.27;;
76379;SDS011;65201;21.060;105.826;2023-01-23T17:36:50;21.88;;;14.07;;
76379;SDS011;65201;21.060;105.826;2023-01-23T17:39:17;21.35;;;13.98;;
76379;SDS011;65201;21.060;105.826;2023-01-23T17:41:43;21.07;;;13.47;;
76379;SDS011;65201;21.060;105.826;2023-01-23T17:44:09;18.90;;;13.02;;
76379;SDS011;65201;21.060;105.826;2023-01-23T17:46:35;20.35;;;12.68;;
76379;SDS011;65201;21.060;105.826;2023-01-23T17:49:08;19.17;;;12.65;;
76379;SDS011;65201;21.060;105.826;2023-01-23T17:51:40;17.52;;;12.70;;
76379;SDS011;65201;21.060;105.826;2023-01-23T17:54:09;17.83;;;12.40;;
76379;SDS011;65201;21.060;105.826;2023-01-23T17:56:41;20.58;;;13.50;;
76379;SDS011;65201;21.060;105.826;2023-01-23T17:59:08;24.30;;;14.63;;
76379;SDS011;65201;21.060;105.826;2023-01-23T18:01:34;20.85;;;13.55;;
76379;SDS011;65201;21.060;105.826;2023-01-23T18:04:00;19.08;;;13.20;;
76379;SDS011;65201;21.060;105.826;2023-01-23T18:06:26;21.23;;;13.30;;
76379;SDS011;65201;21.060;105.826;2023-01-23T18:08:52;23.00;;;13.32;;
76379;SDS011;65201;21.060;105.826;2023-01-23T18:11:19;18.70;;;12.98;;
76379;SDS011;65201;21.060;105.826;2023-01-23T18:13:52;19.48;;;12.48;;
76379;SDS011;65201;21.060;105.826;2023-01-23T18:16:22;21.55;;;13.07;;
76379;SDS011;65201;21.060;105.826;2023-01-23T18:18:49;21.77;;;13.60;;
76379;SDS011;65201;21.060;105.826;2023-01-23T18:21:18;19.98;;;12.77;;
76379;SDS011;65201;21.060;105.826;2023-01-23T18:23:44;21.75;;;13.50;;
76379;SDS011;65201;21.060;105.826;2023-01-23T18:28:55;19.27;;;12.70;;
76379;SDS011;65201;21.060;105.826;2023-01-23T18:31:25;22.10;;;13.57;;
76379;SDS011;65201;21.060;105.826;2023-01-23T18:39:28;18.40;;;12.05;;
76379;SDS011;65201;21.060;105.826;2023-01-23T18:44:30;18.60;;;12.10;;
76379;SDS011;65201;21.060;105.826;2023-01-23T18:46:59;16.40;;;11.65;;
76379;SDS011;65201;21.060;105.826;2023-01-23T18:49:30;17.35;;;12.40;;
76379;SDS011;65201;21.060;105.826;2023-01-23T18:52:01;16.55;;;12.15;;
76379;SDS011;65201;21.060;105.826;2023-01-23T18:57:10;18.73;;;12.40;;
76379;SDS011;65201;21.060;105.826;2023-01-23T19:05:07;16.52;;;11.13;;
76379;SDS011;65201;21.060;105.826;2023-01-23T19:07:36;15.10;;;11.25;;
76379;SDS011;65201;21.060;105.826;2023-01-23T19:10:05;16.77;;;11.30;;
76379;SDS011;65201;21.060;105.826;2023-01-23T19:12:36;15.52;;;11.30;;
76379;SDS011;65201;21.060;105.826;2023-01-23T19:18:08;15.73;;;11.43;;
76379;SDS011;65201;21.060;105.826;2023-01-23T19:25:35;15.13;;;10.93;;
76379;SDS011;65201;21.060;105.826;2023-01-23T19:28:01;16.33;;;12.20;;
76379;SDS011;65201;21.060;105.826;2023-01-23T19:30:27;17.10;;;11.57;;
76379;SDS011;65201;21.060;105.826;2023-01-23T19:32:53;15.40;;;11.23;;
76379;SDS011;65201;21.060;105.826;2023-01-23T19:35:20;14.53;;;11.50;;
76379;SDS011;65201;21.060;105.826;2023-01-23T19:37:46;17.38;;;12.15;;
76379;SDS011;65201;21.060;105.826;2023-01-23T19:40:12;15.80;;;10.90;;
76379;SDS011;65201;21.060;105.826;2023-01-23T19:42:39;16.35;;;11.20;;
76379;SDS011;65201;21.060;105.826;2023-01-23T19:45:10;15.05;;;10.88;;
76379;SDS011;65201;21.060;105.826;2023-01-23T19:47:36;16.60;;;10.97;;
76379;SDS011;65201;21.060;105.826;2023-01-23T19:50:02;15.02;;;10.60;;
76379;SDS011;65201;21.060;105.826;2023-01-23T19:52:28;16.00;;;11.40;;
76379;SDS011;65201;21.060;105.826;2023-01-23T19:54:54;14.68;;;11.15;;
76379;SDS011;65201;21.060;105.826;2023-01-23T19:57:20;15.50;;;11.70;;
76379;SDS011;65201;21.060;105.826;2023-01-23T19:59:46;15.60;;;10.77;;
76379;SDS011;65201;21.060;105.826;2023-01-23T20:02:14;14.52;;;11.18;;
76379;SDS011;65201;21.060;105.826;2023-01-23T20:04:42;15.05;;;11.00;;
76379;SDS011;65201;21.060;105.826;2023-01-23T20:07:08;16.13;;;11.50;;
76379;SDS011;65201;21.060;105.826;2023-01-23T20:09:34;14.02;;;10.75;;
76379;SDS011;65201;21.060;105.826;2023-01-23T20:12:00;16.07;;;11.00;;
76379;SDS011;65201;21.060;105.826;2023-01-23T20:14:26;13.95;;;10.93;;
76379;SDS011;65201;21.060;105.826;2023-01-23T20:16:54;17.35;;;11.48;;
76379;SDS011;65201;21.060;105.826;2023-01-23T20:19:20;15.15;;;11.25;;
76379;SDS011;65201;21.060;105.826;2023-01-23T20:21:46;17.38;;;11.43;;
76379;SDS011;65201;21.060;105.826;2023-01-23T20:24:12;15.13;;;10.87;;
76379;SDS011;65201;21.060;105.826;2023-01-23T20:26:39;14.10;;;10.85;;
76379;SDS011;65201;21.060;105.826;2023-01-23T20:29:09;13.25;;;10.73;;
76379;SDS011;65201;21.060;105.826;2023-01-23T20:31:35;14.85;;;11.55;;
76379;SDS011;65201;21.060;105.826;2023-01-23T20:34:01;15.70;;;11.10;;
76379;SDS011;65201;21.060;105.826;2023-01-23T20:36:37;16.10;;;11.40;;
76379;SDS011;65201;21.060;105.826;2023-01-23T20:39:03;13.13;;;10.60;;
76379;SDS011;65201;21.060;105.826;2023-01-23T20:41:30;13.43;;;10.68;;
76379;SDS011;65201;21.060;105.826;2023-01-23T20:43:56;14.32;;;11.15;;
76379;SDS011;65201;21.060;105.826;2023-01-23T20:46:22;13.82;;;10.82;;
76379;SDS011;65201;21.060;105.826;2023-01-23T20:48:48;15.53;;;11.00;;
76379;SDS011;65201;21.060;105.826;2023-01-23T20:51:15;16.85;;;10.30;;
76379;SDS011;65201;21.060;105.826;2023-01-23T20:53:41;15.57;;;10.75;;
76379;SDS011;65201;21.060;105.826;2023-01-23T20:56:08;15.95;;;11.07;;
76379;SDS011;65201;21.060;105.826;2023-01-23T20:58:36;12.68;;;10.18;;
76379;SDS011;65201;21.060;105.826;2023-01-23T21:01:21;13.70;;;10.40;;
76379;SDS011;65201;21.060;105.826;2023-01-23T21:03:47;13.98;;;10.27;;
76379;SDS011;65201;21.060;105.826;2023-01-23T21:06:14;13.68;;;10.57;;
76379;SDS011;65201;21.060;105.826;2023-01-23T21:08:41;13.35;;;10.63;;
76379;SDS011;65201;21.060;105.826;2023-01-23T21:11:11;14.93;;;10.68;;
76379;SDS011;65201;21.060;105.826;2023-01-23T21:13:37;13.20;;;10.33;;
76379;SDS011;65201;21.060;105.826;2023-01-23T21:16:05;13.55;;;10.63;;
76379;SDS011;65201;21.060;105.826;2023-01-23T21:18:34;13.68;;;10.45;;
76379;SDS011;65201;21.060;105.826;2023-01-23T21:21:04;14.48;;;11.13;;
76379;SDS011;65201;21.060;105.826;2023-01-23T21:23:31;12.48;;;10.48;;
76379;SDS011;65201;21.060;105.826;2023-01-23T21:25:58;15.63;;;10.73;;
76379;SDS011;65201;21.060;105.826;2023-01-23T21:28:24;12.80;;;9.85;;
76379;SDS011;65201;21.060;105.826;2023-01-23T21:30:51;12.25;;;10.27;;
76379;SDS011;65201;21.060;105.826;2023-01-23T21:33:17;13.15;;;10.50;;
76379;SDS011;65201;21.060;105.826;2023-01-23T21:35:50;13.00;;;10.15;;
76379;SDS011;65201;21.060;105.826;2023-01-23T21:38:16;14.03;;;10.10;;
76379;SDS011;65201;21.060;105.826;2023-01-23T21:40:43;14.32;;;10.40;;
76379;SDS011;65201;21.060;105.826;2023-01-23T21:43:09;12.35;;;10.45;;
76379;SDS011;65201;21.060;105.826;2023-01-23T21:45:35;13.20;;;10.45;;
76379;SDS011;65201;21.060;105.826;2023-01-23T21:48:01;12.68;;;9.93;;
76379;SDS011;65201;21.060;105.826;2023-01-23T21:50:27;13.67;;;10.77;;
76379;SDS011;65201;21.060;105.826;2023-01-23T21:52:53;13.48;;;10.30;;
76379;SDS011;65201;21.060;105.826;2023-01-23T21:55:19;12.20;;;10.10;;
76379;SDS011;65201;21.060;105.826;2023-01-23T21:57:45;11.98;;;10.05;;
76379;SDS011;65201;21.060;105.826;2023-01-23T22:00:12;12.75;;;10.43;;